sensor_id;sensor_type;location;lat;lon;timestamp;P1;durP1;ratioP1;P2;durP2;ratioP2
51228;SDS011;37304;52.216;6.874;2023-07-24T00:04:40;3.53;;;1.53;;
51228;SDS011;37304;52.216;6.874;2023-07-24T00:09:41;4.97;;;1.33;;
51228;SDS011;37304;52.216;6.874;2023-07-24T00:14:41;2.30;;;1.30;;
51228;SDS011;37304;52.216;6.874;2023-07-24T00:19:41;2.23;;;1.30;;
51228;SDS011;37304;52.216;6.874;2023-07-24T00:24:42;3.53;;;1.30;;
51228;SDS011;37304;52.216;6.874;2023-07-24T00:29:42;1.87;;;1.40;;
51228;SDS011;37304;52.216;6.874;2023-07-24T00:34:43;2.67;;;1.60;;
51228;SDS011;37304;52.216;6.874;2023-07-24T00:39:43;5.40;;;2.00;;
51228;SDS011;37304;52.216;6.874;2023-07-24T00:44:43;2.60;;;1.97;;
51228;SDS011;37304;52.216;6.874;2023-07-24T00:49:44;2.43;;;1.83;;
51228;SDS011;37304;52.216;6.874;2023-07-24T00:54:44;2.47;;;2.28;;
51228;SDS011;37304;52.216;6.874;2023-07-24T00:59:46;1.70;;;1.55;;
51228;SDS011;37304;52.216;6.874;2023-07-24T01:04:47;2.40;;;1.93;;
51228;SDS011;37304;52.216;6.874;2023-07-24T01:09:47;3.50;;;1.60;;
51228;SDS011;37304;52.216;6.874;2023-07-24T01:14:52;2.77;;;1.83;;
51228;SDS011;37304;52.216;6.874;2023-07-24T01:19:58;2.30;;;1.83;;
51228;SDS011;37304;52.216;6.874;2023-07-24T01:25:18;1.92;;;1.60;;
51228;SDS011;37304;52.216;6.874;2023-07-24T01:30:35;3.33;;;1.80;;
51228;SDS011;37304;52.216;6.874;2023-07-24T01:35:36;2.80;;;1.50;;
51228;SDS011;37304;52.216;6.874;2023-07-24T01:40:41;2.97;;;1.63;;
51228;SDS011;37304;52.216;6.874;2023-07-24T01:45:42;2.25;;;1.73;;
51228;SDS011;37304;52.216;6.874;2023-07-24T01:50:43;5.20;;;1.53;;
51228;SDS011;37304;52.216;6.874;2023-07-24T01:55:43;2.50;;;1.30;;
51228;SDS011;37304;52.216;6.874;2023-07-24T02:00:43;2.07;;;1.50;;
51228;SDS011;37304;52.216;6.874;2023-07-24T02:05:48;2.57;;;1.50;;
51228;SDS011;37304;52.216;6.874;2023-07-24T02:10:50;2.45;;;1.67;;
51228;SDS011;37304;52.216;6.874;2023-07-24T02:15:50;3.47;;;1.88;;
51228;SDS011;37304;52.216;6.874;2023-07-24T02:20:51;3.58;;;1.50;;
51228;SDS011;37304;52.216;6.874;2023-07-24T02:25:51;5.43;;;2.03;;
51228;SDS011;37304;52.216;6.874;2023-07-24T02:30:55;2.38;;;1.83;;
51228;SDS011;37304;52.216;6.874;2023-07-24T02:36:00;2.85;;;2.10;;
51228;SDS011;37304;52.216;6.874;2023-07-24T02:41:01;3.13;;;2.00;;
51228;SDS011;37304;52.216;6.874;2023-07-24T02:46:02;6.00;;;2.27;;
51228;SDS011;37304;52.216;6.874;2023-07-24T02:51:02;3.92;;;2.38;;
51228;SDS011;37304;52.216;6.874;2023-07-24T02:56:02;2.50;;;2.00;;
51228;SDS011;37304;52.216;6.874;2023-07-24T03:01:03;4.13;;;2.47;;
51228;SDS011;37304;52.216;6.874;2023-07-24T03:06:05;3.42;;;2.17;;
51228;SDS011;37304;52.216;6.874;2023-07-24T03:11:06;2.80;;;1.97;;
51228;SDS011;37304;52.216;6.874;2023-07-24T03:16:07;5.07;;;2.60;;
51228;SDS011;37304;52.216;6.874;2023-07-24T03:21:07;3.60;;;2.60;;
51228;SDS011;37304;52.216;6.874;2023-07-24T03:26:09;5.57;;;2.30;;
51228;SDS011;37304;52.216;6.874;2023-07-24T03:31:09;5.17;;;2.27;;
51228;SDS011;37304;52.216;6.874;2023-07-24T03:36:09;4.10;;;2.30;;
51228;SDS011;37304;52.216;6.874;2023-07-24T03:41:10;4.50;;;2.60;;
51228;SDS011;37304;52.216;6.874;2023-07-24T03:46:10;3.97;;;2.10;;
51228;SDS011;37304;52.216;6.874;2023-07-24T03:51:10;4.60;;;2.43;;
51228;SDS011;37304;52.216;6.874;2023-07-24T03:56:11;4.43;;;2.23;;
51228;SDS011;37304;52.216;6.874;2023-07-24T04:01:11;3.17;;;2.20;;
51228;SDS011;37304;52.216;6.874;2023-07-24T04:06:11;3.83;;;2.37;;
51228;SDS011;37304;52.216;6.874;2023-07-24T04:11:12;3.80;;;2.33;;
51228;SDS011;37304;52.216;6.874;2023-07-24T04:16:12;6.10;;;2.57;;
51228;SDS011;37304;52.216;6.874;2023-07-24T04:21:12;6.43;;;2.50;;
51228;SDS011;37304;52.216;6.874;2023-07-24T04:26:13;4.30;;;2.60;;
51228;SDS011;37304;52.216;6.874;2023-07-24T04:31:13;6.90;;;2.25;;
51228;SDS011;37304;52.216;6.874;2023-07-24T04:36:14;6.97;;;2.60;;
51228;SDS011;37304;52.216;6.874;2023-07-24T04:41:14;4.53;;;2.57;;
51228;SDS011;37304;52.216;6.874;2023-07-24T04:46:14;7.03;;;2.50;;
51228;SDS011;37304;52.216;6.874;2023-07-24T04:51:15;3.73;;;2.30;;
51228;SDS011;37304;52.216;6.874;2023-07-24T04:56:15;5.73;;;2.23;;
51228;SDS011;37304;52.216;6.874;2023-07-24T05:01:15;3.37;;;1.83;;
51228;SDS011;37304;52.216;6.874;2023-07-24T05:06:16;3.37;;;2.30;;
51228;SDS011;37304;52.216;6.874;2023-07-24T05:11:16;6.20;;;1.93;;
51228;SDS011;37304;52.216;6.874;2023-07-24T05:16:16;4.93;;;2.00;;
51228;SDS011;37304;52.216;6.874;2023-07-24T05:21:17;3.60;;;1.77;;
51228;SDS011;37304;52.216;6.874;2023-07-24T05:26:17;3.37;;;1.90;;
51228;SDS011;37304;52.216;6.874;2023-07-24T05:31:18;4.15;;;2.10;;
51228;SDS011;37304;52.216;6.874;2023-07-24T05:36:18;5.43;;;2.00;;
51228;SDS011;37304;52.216;6.874;2023-07-24T05:41:19;5.27;;;2.10;;
51228;SDS011;37304;52.216;6.874;2023-07-24T05:46:19;5.83;;;2.13;;
51228;SDS011;37304;52.216;6.874;2023-07-24T05:51:19;3.33;;;2.00;;
51228;SDS011;37304;52.216;6.874;2023-07-24T05:56:20;2.97;;;1.73;;
51228;SDS011;37304;52.216;6.874;2023-07-24T06:01:20;4.63;;;2.10;;
51228;SDS011;37304;52.216;6.874;2023-07-24T06:06:20;2.57;;;1.27;;
51228;SDS011;37304;52.216;6.874;2023-07-24T06:11:21;3.33;;;1.80;;
51228;SDS011;37304;52.216;6.874;2023-07-24T06:16:22;2.47;;;1.40;;
51228;SDS011;37304;52.216;6.874;2023-07-24T06:21:23;4.30;;;1.60;;
51228;SDS011;37304;52.216;6.874;2023-07-24T06:26:23;3.73;;;1.97;;
51228;SDS011;37304;52.216;6.874;2023-07-24T06:31:24;3.43;;;1.90;;
51228;SDS011;37304;52.216;6.874;2023-07-24T06:36:24;3.33;;;2.33;;
51228;SDS011;37304;52.216;6.874;2023-07-24T06:41:24;3.67;;;2.37;;
51228;SDS011;37304;52.216;6.874;2023-07-24T06:46:25;3.27;;;2.30;;
51228;SDS011;37304;52.216;6.874;2023-07-24T06:51:25;5.80;;;2.43;;
51228;SDS011;37304;52.216;6.874;2023-07-24T06:56:25;4.37;;;2.43;;
51228;SDS011;37304;52.216;6.874;2023-07-24T07:01:26;3.90;;;2.53;;
51228;SDS011;37304;52.216;6.874;2023-07-24T07:06:26;5.40;;;3.23;;
51228;SDS011;37304;52.216;6.874;2023-07-24T07:11:26;5.43;;;3.63;;
51228;SDS011;37304;52.216;6.874;2023-07-24T07:16:27;5.57;;;3.27;;
51228;SDS011;37304;52.216;6.874;2023-07-24T07:21:27;5.88;;;3.65;;
51228;SDS011;37304;52.216;6.874;2023-07-24T07:26:28;5.80;;;3.77;;
51228;SDS011;37304;52.216;6.874;2023-07-24T07:31:29;6.88;;;3.80;;
51228;SDS011;37304;52.216;6.874;2023-07-24T07:36:30;5.50;;;3.37;;
51228;SDS011;37304;52.216;6.874;2023-07-24T07:41:30;8.60;;;4.40;;
51228;SDS011;37304;52.216;6.874;2023-07-24T07:46:31;9.10;;;4.57;;
51228;SDS011;37304;52.216;6.874;2023-07-24T07:51:31;7.73;;;4.77;;
51228;SDS011;37304;52.216;6.874;2023-07-24T07:56:31;9.90;;;5.50;;
51228;SDS011;37304;52.216;6.874;2023-07-24T08:01:32;9.00;;;5.37;;
51228;SDS011;37304;52.216;6.874;2023-07-24T08:06:32;6.93;;;4.83;;
51228;SDS011;37304;52.216;6.874;2023-07-24T08:11:33;8.10;;;4.97;;
51228;SDS011;37304;52.216;6.874;2023-07-24T08:16:33;8.50;;;4.70;;
51228;SDS011;37304;52.216;6.874;2023-07-24T08:21:33;8.10;;;5.07;;
51228;SDS011;37304;52.216;6.874;2023-07-24T08:26:34;8.93;;;5.30;;
51228;SDS011;37304;52.216;6.874;2023-07-24T08:31:34;6.90;;;4.67;;
51228;SDS011;37304;52.216;6.874;2023-07-24T08:36:34;7.63;;;4.20;;
51228;SDS011;37304;52.216;6.874;2023-07-24T08:41:36;5.63;;;4.30;;
51228;SDS011;37304;52.216;6.874;2023-07-24T08:46:37;8.43;;;4.20;;
51228;SDS011;37304;52.216;6.874;2023-07-24T08:51:45;6.68;;;4.22;;
51228;SDS011;37304;52.216;6.874;2023-07-24T08:56:47;8.25;;;4.53;;
51228;SDS011;37304;52.216;6.874;2023-07-24T09:01:50;7.47;;;3.80;;
51228;SDS011;37304;52.216;6.874;2023-07-24T09:06:52;6.22;;;4.00;;
51228;SDS011;37304;52.216;6.874;2023-07-24T09:11:53;8.23;;;4.35;;
51228;SDS011;37304;52.216;6.874;2023-07-24T09:17:06;6.38;;;3.75;;
51228;SDS011;37304;52.216;6.874;2023-07-24T09:22:08;8.98;;;4.22;;
51228;SDS011;37304;52.216;6.874;2023-07-24T09:27:10;9.00;;;3.83;;
51228;SDS011;37304;52.216;6.874;2023-07-24T09:32:21;7.57;;;4.15;;
51228;SDS011;37304;52.216;6.874;2023-07-24T09:37:27;7.03;;;4.03;;
51228;SDS011;37304;52.216;6.874;2023-07-24T09:42:34;6.00;;;4.28;;
51228;SDS011;37304;52.216;6.874;2023-07-24T09:47:35;6.53;;;4.15;;
51228;SDS011;37304;52.216;6.874;2023-07-24T09:52:36;9.20;;;5.37;;
51228;SDS011;37304;52.216;6.874;2023-07-24T09:57:41;8.52;;;5.07;;
51228;SDS011;37304;52.216;6.874;2023-07-24T10:02:44;8.35;;;4.85;;
51228;SDS011;37304;52.216;6.874;2023-07-24T10:07:44;8.00;;;4.37;;
51228;SDS011;37304;52.216;6.874;2023-07-24T10:12:47;6.95;;;4.32;;
51228;SDS011;37304;52.216;6.874;2023-07-24T10:17:48;6.95;;;4.30;;
51228;SDS011;37304;52.216;6.874;2023-07-24T10:22:48;9.37;;;4.67;;
51228;SDS011;37304;52.216;6.874;2023-07-24T10:27:49;9.53;;;4.40;;
51228;SDS011;37304;52.216;6.874;2023-07-24T10:32:51;7.45;;;4.18;;
51228;SDS011;37304;52.216;6.874;2023-07-24T10:38:01;7.57;;;4.70;;
51228;SDS011;37304;52.216;6.874;2023-07-24T10:43:08;7.85;;;4.40;;
51228;SDS011;37304;52.216;6.874;2023-07-24T10:53:18;6.38;;;3.90;;
51228;SDS011;37304;52.216;6.874;2023-07-24T10:58:20;5.20;;;3.53;;
51228;SDS011;37304;52.216;6.874;2023-07-24T11:03:25;5.28;;;3.47;;
51228;SDS011;37304;52.216;6.874;2023-07-24T11:08:27;6.05;;;4.38;;
51228;SDS011;37304;52.216;6.874;2023-07-24T11:13:27;5.90;;;3.83;;
51228;SDS011;37304;52.216;6.874;2023-07-24T11:18:28;7.68;;;4.00;;
51228;SDS011;37304;52.216;6.874;2023-07-24T11:23:30;5.57;;;3.78;;
51228;SDS011;37304;52.216;6.874;2023-07-24T11:28:38;6.57;;;3.67;;
51228;SDS011;37304;52.216;6.874;2023-07-24T11:33:39;4.82;;;3.45;;
51228;SDS011;37304;52.216;6.874;2023-07-24T11:38:40;6.38;;;4.10;;
51228;SDS011;37304;52.216;6.874;2023-07-24T11:43:47;8.83;;;3.67;;
51228;SDS011;37304;52.216;6.874;2023-07-24T11:48:48;7.25;;;3.78;;
51228;SDS011;37304;52.216;6.874;2023-07-24T11:53:49;5.90;;;3.35;;
51228;SDS011;37304;52.216;6.874;2023-07-24T11:58:50;6.78;;;3.38;;
51228;SDS011;37304;52.216;6.874;2023-07-24T12:03:51;6.30;;;3.77;;
51228;SDS011;37304;52.216;6.874;2023-07-24T12:08:51;5.37;;;3.60;;
51228;SDS011;37304;52.216;6.874;2023-07-24T12:13:51;7.40;;;4.17;;
51228;SDS011;37304;52.216;6.874;2023-07-24T12:18:53;6.53;;;3.88;;
51228;SDS011;37304;52.216;6.874;2023-07-24T12:23:53;7.90;;;4.50;;
51228;SDS011;37304;52.216;6.874;2023-07-24T12:28:54;7.77;;;3.93;;
51228;SDS011;37304;52.216;6.874;2023-07-24T12:33:54;9.00;;;4.50;;
51228;SDS011;37304;52.216;6.874;2023-07-24T12:38:55;7.37;;;4.13;;
51228;SDS011;37304;52.216;6.874;2023-07-24T12:43:55;6.87;;;4.23;;
51228;SDS011;37304;52.216;6.874;2023-07-24T12:48:55;6.03;;;4.60;;
51228;SDS011;37304;52.216;6.874;2023-07-24T12:53:56;7.43;;;4.37;;
51228;SDS011;37304;52.216;6.874;2023-07-24T12:58:56;8.73;;;4.37;;
51228;SDS011;37304;52.216;6.874;2023-07-24T13:03:57;6.47;;;4.37;;
51228;SDS011;37304;52.216;6.874;2023-07-24T13:08:57;10.47;;;4.40;;
51228;SDS011;37304;52.216;6.874;2023-07-24T13:13:57;8.27;;;4.97;;
51228;SDS011;37304;52.216;6.874;2023-07-24T13:18:58;6.07;;;4.67;;
51228;SDS011;37304;52.216;6.874;2023-07-24T13:23:58;6.93;;;4.90;;
51228;SDS011;37304;52.216;6.874;2023-07-24T13:28:59;8.90;;;4.70;;
51228;SDS011;37304;52.216;6.874;2023-07-24T13:33:59;8.80;;;5.50;;
51228;SDS011;37304;52.216;6.874;2023-07-24T13:38:59;8.23;;;5.27;;
51228;SDS011;37304;52.216;6.874;2023-07-24T13:44:00;7.13;;;4.67;;
51228;SDS011;37304;52.216;6.874;2023-07-24T13:49:00;8.67;;;5.23;;
51228;SDS011;37304;52.216;6.874;2023-07-24T13:54:00;7.80;;;4.87;;
51228;SDS011;37304;52.216;6.874;2023-07-24T13:59:01;8.13;;;5.32;;
51228;SDS011;37304;52.216;6.874;2023-07-24T14:04:03;8.32;;;4.82;;
51228;SDS011;37304;52.216;6.874;2023-07-24T14:09:03;7.57;;;4.93;;
51228;SDS011;37304;52.216;6.874;2023-07-24T14:14:04;7.80;;;4.93;;
51228;SDS011;37304;52.216;6.874;2023-07-24T14:19:04;8.50;;;4.73;;
51228;SDS011;37304;52.216;6.874;2023-07-24T14:24:04;9.87;;;4.67;;
51228;SDS011;37304;52.216;6.874;2023-07-24T14:29:05;7.13;;;4.53;;
51228;SDS011;37304;52.216;6.874;2023-07-24T14:34:05;7.27;;;4.50;;
51228;SDS011;37304;52.216;6.874;2023-07-24T14:39:10;6.00;;;4.43;;
51228;SDS011;37304;52.216;6.874;2023-07-24T14:44:11;8.37;;;4.00;;
51228;SDS011;37304;52.216;6.874;2023-07-24T14:49:11;6.57;;;4.00;;
51228;SDS011;37304;52.216;6.874;2023-07-24T14:54:11;6.93;;;3.97;;
51228;SDS011;37304;52.216;6.874;2023-07-24T14:59:12;6.50;;;3.13;;
51228;SDS011;37304;52.216;6.874;2023-07-24T15:04:13;5.20;;;3.42;;
51228;SDS011;37304;52.216;6.874;2023-07-24T15:09:13;6.30;;;3.13;;
51228;SDS011;37304;52.216;6.874;2023-07-24T15:14:14;6.10;;;3.07;;
51228;SDS011;37304;52.216;6.874;2023-07-24T15:19:14;7.40;;;2.78;;
51228;SDS011;37304;52.216;6.874;2023-07-24T15:24:15;2.90;;;1.00;;
51228;SDS011;37304;52.216;6.874;2023-07-24T15:29:17;3.33;;;0.77;;
51228;SDS011;37304;52.216;6.874;2023-07-24T15:34:18;1.77;;;1.08;;
51228;SDS011;37304;52.216;6.874;2023-07-24T15:39:19;3.37;;;1.37;;
51228;SDS011;37304;52.216;6.874;2023-07-24T15:44:19;2.63;;;1.13;;
51228;SDS011;37304;52.216;6.874;2023-07-24T15:49:20;3.05;;;1.40;;
51228;SDS011;37304;52.216;6.874;2023-07-24T15:54:20;5.53;;;1.63;;
51228;SDS011;37304;52.216;6.874;2023-07-24T15:59:21;4.80;;;2.40;;
51228;SDS011;37304;52.216;6.874;2023-07-24T16:04:21;6.53;;;2.70;;
51228;SDS011;37304;52.216;6.874;2023-07-24T16:09:22;6.00;;;2.73;;
51228;SDS011;37304;52.216;6.874;2023-07-24T16:14:22;5.18;;;2.78;;
51228;SDS011;37304;52.216;6.874;2023-07-24T16:19:23;4.87;;;3.00;;
51228;SDS011;37304;52.216;6.874;2023-07-24T16:24:23;4.97;;;3.10;;
51228;SDS011;37304;52.216;6.874;2023-07-24T16:29:24;7.28;;;3.60;;
51228;SDS011;37304;52.216;6.874;2023-07-24T16:34:24;5.43;;;3.50;;
51228;SDS011;37304;52.216;6.874;2023-07-24T16:39:25;6.90;;;4.18;;
51228;SDS011;37304;52.216;6.874;2023-07-24T16:44:26;8.65;;;4.18;;
51228;SDS011;37304;52.216;6.874;2023-07-24T16:49:27;6.95;;;4.28;;
51228;SDS011;37304;52.216;6.874;2023-07-24T16:54:28;8.13;;;4.83;;
51228;SDS011;37304;52.216;6.874;2023-07-24T16:59:29;7.03;;;4.50;;
51228;SDS011;37304;52.216;6.874;2023-07-24T17:04:30;6.45;;;4.25;;
51228;SDS011;37304;52.216;6.874;2023-07-24T17:09:31;6.22;;;3.78;;
51228;SDS011;37304;52.216;6.874;2023-07-24T17:14:31;8.03;;;3.47;;
51228;SDS011;37304;52.216;6.874;2023-07-24T17:19:31;5.17;;;3.07;;
51228;SDS011;37304;52.216;6.874;2023-07-24T17:24:32;7.23;;;2.70;;
51228;SDS011;37304;52.216;6.874;2023-07-24T17:29:32;5.03;;;2.63;;
51228;SDS011;37304;52.216;6.874;2023-07-24T17:34:32;3.93;;;2.60;;
51228;SDS011;37304;52.216;6.874;2023-07-24T17:39:33;5.30;;;3.17;;
51228;SDS011;37304;52.216;6.874;2023-07-24T17:44:33;8.70;;;3.13;;
51228;SDS011;37304;52.216;6.874;2023-07-24T17:49:34;6.67;;;1.70;;
51228;SDS011;37304;52.216;6.874;2023-07-24T17:54:34;2.47;;;1.37;;
51228;SDS011;37304;52.216;6.874;2023-07-24T17:59:34;1.40;;;0.97;;
51228;SDS011;37304;52.216;6.874;2023-07-24T18:04:35;1.70;;;1.02;;
51228;SDS011;37304;52.216;6.874;2023-07-24T18:09:35;6.10;;;1.23;;
51228;SDS011;37304;52.216;6.874;2023-07-24T18:14:36;2.65;;;0.88;;
51228;SDS011;37304;52.216;6.874;2023-07-24T18:19:36;2.23;;;1.10;;
51228;SDS011;37304;52.216;6.874;2023-07-24T18:24:37;1.40;;;0.80;;
51228;SDS011;37304;52.216;6.874;2023-07-24T18:29:37;1.90;;;0.90;;
51228;SDS011;37304;52.216;6.874;2023-07-24T18:34:38;2.00;;;0.80;;
51228;SDS011;37304;52.216;6.874;2023-07-24T18:39:38;2.85;;;0.90;;
51228;SDS011;37304;52.216;6.874;2023-07-24T18:44:39;2.57;;;0.60;;
51228;SDS011;37304;52.216;6.874;2023-07-24T18:49:39;1.87;;;0.90;;
51228;SDS011;37304;52.216;6.874;2023-07-24T18:54:40;1.25;;;0.65;;
51228;SDS011;37304;52.216;6.874;2023-07-24T18:59:40;1.00;;;0.90;;
51228;SDS011;37304;52.216;6.874;2023-07-24T19:04:40;1.63;;;0.93;;
51228;SDS011;37304;52.216;6.874;2023-07-24T19:09:41;2.53;;;0.90;;
51228;SDS011;37304;52.216;6.874;2023-07-24T19:14:41;5.40;;;0.80;;
51228;SDS011;37304;52.216;6.874;2023-07-24T19:19:42;2.08;;;0.98;;
51228;SDS011;37304;52.216;6.874;2023-07-24T19:24:43;2.28;;;0.68;;
51228;SDS011;37304;52.216;6.874;2023-07-24T19:29:44;3.90;;;1.03;;
51228;SDS011;37304;52.216;6.874;2023-07-24T19:34:44;3.10;;;0.80;;
51228;SDS011;37304;52.216;6.874;2023-07-24T19:39:45;1.33;;;0.82;;
51228;SDS011;37304;52.216;6.874;2023-07-24T19:44:46;3.30;;;0.90;;
51228;SDS011;37304;52.216;6.874;2023-07-24T19:49:48;2.20;;;1.10;;
51228;SDS011;37304;52.216;6.874;2023-07-24T19:54:50;3.22;;;1.02;;
51228;SDS011;37304;52.216;6.874;2023-07-24T19:59:51;2.72;;;1.02;;
51228;SDS011;37304;52.216;6.874;2023-07-24T20:04:51;6.07;;;1.30;;
51228;SDS011;37304;52.216;6.874;2023-07-24T20:09:52;1.57;;;1.07;;
51228;SDS011;37304;52.216;6.874;2023-07-24T20:14:53;4.43;;;1.00;;
51228;SDS011;37304;52.216;6.874;2023-07-24T20:19:53;4.37;;;1.43;;
51228;SDS011;37304;52.216;6.874;2023-07-24T20:24:53;2.93;;;1.13;;
51228;SDS011;37304;52.216;6.874;2023-07-24T20:29:54;2.23;;;1.00;;
51228;SDS011;37304;52.216;6.874;2023-07-24T20:34:54;1.77;;;0.73;;
51228;SDS011;37304;52.216;6.874;2023-07-24T20:39:55;2.83;;;1.17;;
51228;SDS011;37304;52.216;6.874;2023-07-24T20:44:55;4.53;;;1.30;;
51228;SDS011;37304;52.216;6.874;2023-07-24T20:49:57;3.50;;;1.20;;
51228;SDS011;37304;52.216;6.874;2023-07-24T20:54:58;1.63;;;0.77;;
51228;SDS011;37304;52.216;6.874;2023-07-24T20:59:58;3.67;;;0.90;;
51228;SDS011;37304;52.216;6.874;2023-07-24T21:04:59;2.50;;;1.07;;
51228;SDS011;37304;52.216;6.874;2023-07-24T21:09:59;4.60;;;1.30;;
51228;SDS011;37304;52.216;6.874;2023-07-24T21:14:59;2.90;;;1.20;;
51228;SDS011;37304;52.216;6.874;2023-07-24T21:20:00;3.53;;;1.87;;
51228;SDS011;37304;52.216;6.874;2023-07-24T21:25:00;3.60;;;1.20;;
51228;SDS011;37304;52.216;6.874;2023-07-24T21:30:00;3.40;;;1.17;;
51228;SDS011;37304;52.216;6.874;2023-07-24T21:35:01;2.30;;;1.23;;
51228;SDS011;37304;52.216;6.874;2023-07-24T21:40:01;3.20;;;1.97;;
51228;SDS011;37304;52.216;6.874;2023-07-24T21:45:02;3.97;;;1.30;;
51228;SDS011;37304;52.216;6.874;2023-07-24T21:50:03;3.15;;;1.20;;
51228;SDS011;37304;52.216;6.874;2023-07-24T21:55:03;2.50;;;1.30;;
51228;SDS011;37304;52.216;6.874;2023-07-24T22:00:04;2.83;;;1.25;;
51228;SDS011;37304;52.216;6.874;2023-07-24T22:05:05;4.85;;;1.48;;
51228;SDS011;37304;52.216;6.874;2023-07-24T22:10:06;3.33;;;1.33;;
51228;SDS011;37304;52.216;6.874;2023-07-24T22:15:07;4.03;;;1.55;;
51228;SDS011;37304;52.216;6.874;2023-07-24T22:20:08;5.35;;;2.55;;
51228;SDS011;37304;52.216;6.874;2023-07-24T22:25:10;3.50;;;1.55;;
51228;SDS011;37304;52.216;6.874;2023-07-24T22:30:10;4.80;;;1.80;;
51228;SDS011;37304;52.216;6.874;2023-07-24T22:35:11;4.63;;;2.00;;
51228;SDS011;37304;52.216;6.874;2023-07-24T22:40:12;9.20;;;1.87;;
51228;SDS011;37304;52.216;6.874;2023-07-24T22:45:12;6.05;;;1.52;;
51228;SDS011;37304;52.216;6.874;2023-07-24T22:50:13;4.20;;;2.10;;
51228;SDS011;37304;52.216;6.874;2023-07-24T22:55:14;2.45;;;1.85;;
51228;SDS011;37304;52.216;6.874;2023-07-24T23:00:15;4.28;;;1.83;;
51228;SDS011;37304;52.216;6.874;2023-07-24T23:05:16;6.40;;;2.10;;
51228;SDS011;37304;52.216;6.874;2023-07-24T23:10:16;8.27;;;1.60;;
51228;SDS011;37304;52.216;6.874;2023-07-24T23:15:17;6.27;;;1.77;;
51228;SDS011;37304;52.216;6.874;2023-07-24T23:20:17;4.50;;;1.70;;
51228;SDS011;37304;52.216;6.874;2023-07-24T23:25:17;4.70;;;1.90;;
51228;SDS011;37304;52.216;6.874;2023-07-24T23:30:18;8.03;;;2.17;;
51228;SDS011;37304;52.216;6.874;2023-07-24T23:35:18;6.20;;;2.20;;
51228;SDS011;37304;52.216;6.874;2023-07-24T23:40:19;4.70;;;2.10;;
51228;SDS011;37304;52.216;6.874;2023-07-24T23:45:19;3.67;;;1.90;;
51228;SDS011;37304;52.216;6.874;2023-07-24T23:50:19;2.80;;;1.70;;
51228;SDS011;37304;52.216;6.874;2023-07-24T23:55:20;3.93;;;2.10;;
